Time;durP1;ratioP1;P1;durP2;ratioP2;P2;SDS_P1;SDS_P2;PMS_P1;PMS_P2;Temp;Humidity;BMP_temperature;BMP_pressure;BME280_temperature;BME280_humidity;BME280_pressure;Samples;Min_cycle;Max_cycle;Signal;HPM_P1;HPM_P2
2021/03/21 00:00:39;;;;;;;42.45;10.10;;;5.40;99.90;;;;;;5012176;28;20429;-77
2021/03/21 00:03:05;;;;;;;44.50;8.48;;;5.40;99.90;;;;;;5013726;28;20029;-77
2021/03/21 00:05:31;;;;;;;49.92;9.20;;;5.40;99.90;;;;;;5012638;28;20033;-77
2021/03/21 00:08:00;;;;;;;41.42;9.02;;;5.50;99.90;;;;;;5013398;28;20081;-78
2021/03/21 00:10:27;;;;;;;40.50;9.00;;;5.40;99.90;;;;;;5013359;28;20113;-77
2021/03/21 00:12:53;;;;;;;43.88;9.50;;;5.50;99.90;;;;;;5013494;28;20140;-77
2021/03/21 00:15:19;;;;;;;40.08;7.88;;;5.40;99.90;;;;;;5027948;28;20121;-77
2021/03/21 00:17:45;;;;;;;31.08;8.27;;;5.40;99.90;;;;;;5013482;28;20026;-77
2021/03/21 00:20:13;;;;;;;29.77;7.03;;;5.50;99.90;;;;;;5028105;28;20076;-77
2021/03/21 00:22:39;;;;;;;28.85;6.07;;;5.40;99.90;;;;;;5013455;28;20028;-77
2021/03/21 00:25:10;;;;;;;19.98;6.28;;;5.40;99.90;;;;;;5012710;28;20025;-77
2021/03/21 00:27:35;;;;;;;27.98;5.55;;;5.40;99.90;;;;;;5028565;28;20493;-77
2021/03/21 00:30:07;;;;;;;29.85;5.93;;;5.40;99.90;;;;;;5012936;28;20041;-77
2021/03/21 00:32:32;;;;;;;15.25;5.10;;;5.40;99.90;;;;;;5028387;28;20036;-77
2021/03/21 00:34:58;;;;;;;16.83;5.30;;;5.40;99.90;;;;;;5011021;28;20049;-77
2021/03/21 00:37:24;;;;;;;19.13;5.68;;;5.40;99.90;;;;;;5013224;28;20050;-77
2021/03/21 00:39:49;;;;;;;19.60;5.28;;;5.40;99.90;;;;;;5027695;28;20084;-77
2021/03/21 00:42:15;;;;;;;28.63;6.80;;;5.40;99.90;;;;;;5013070;28;20034;-77
2021/03/21 00:44:40;;;;;;;26.98;6.10;;;5.40;99.90;;;;;;5012263;28;20161;-77
2021/03/21 00:47:06;;;;;;;26.02;6.20;;;5.40;99.90;;;;;;5013051;28;20033;-77
2021/03/21 00:49:31;;;;;;;39.53;8.48;;;5.40;99.90;;;;;;5012602;28;20030;-77
2021/03/21 00:51:57;;;;;;;28.33;6.35;;;5.40;99.90;;;;;;5012592;28;20029;-77
2021/03/21 00:54:23;;;;;;;28.48;7.13;;;5.50;99.90;;;;;;5012164;28;20489;-77
2021/03/21 00:56:48;;;;;;;35.33;7.43;;;5.50;99.90;;;;;;5011416;28;20058;-77
2021/03/21 00:59:14;;;;;;;38.55;8.70;;;5.40;99.90;;;;;;5012730;28;20061;-77
2021/03/21 01:01:39;;;;;;;30.65;7.57;;;5.50;99.90;;;;;;5012147;28;20041;-77
2021/03/21 01:04:05;;;;;;;42.28;8.52;;;5.40;99.90;;;;;;5011989;28;20022;-77
2021/03/21 01:06:32;;;;;;;56.30;10.57;;;5.50;99.90;;;;;;5011176;28;20033;-77
2021/03/21 01:09:01;;;;;;;38.42;8.80;;;5.50;99.90;;;;;;5012553;28;20112;-77
2021/03/21 01:11:30;;;;;;;45.40;7.60;;;5.50;99.90;;;;;;5026922;28;20487;-77
2021/03/21 01:13:56;;;;;;;48.80;8.65;;;5.50;99.90;;;;;;5011631;28;20037;-77
2021/03/21 01:16:33;;;;;;;46.95;7.38;;;5.50;99.90;;;;;;5027714;28;20121;-77
2021/03/21 01:18:59;;;;;;;39.13;8.55;;;5.50;99.90;;;;;;5012356;28;20030;-77
2021/03/21 01:21:28;;;;;;;51.65;7.50;;;5.50;99.90;;;;;;5012076;28;20087;-78
2021/03/21 01:23:54;;;;;;;33.60;7.18;;;5.50;99.90;;;;;;5011677;28;20112;-78
2021/03/21 01:26:22;;;;;;;41.92;7.07;;;5.60;99.90;;;;;;5012222;28;20026;-77
2021/03/21 01:28:48;;;;;;;37.13;7.20;;;5.60;99.90;;;;;;5012309;28;20037;-77
2021/03/21 01:31:17;;;;;;;46.72;7.43;;;5.60;99.90;;;;;;5027075;28;20032;-77
2021/03/21 01:33:43;;;;;;;34.30;6.05;;;5.60;99.90;;;;;;5010389;28;20029;-77
2021/03/21 01:36:24;;;;;;;49.53;6.53;;;5.60;99.90;;;;;;5011673;28;20105;-77
2021/03/21 01:38:51;;;;;;;34.72;5.50;;;5.60;99.90;;;;;;5012158;28;20562;-77
2021/03/21 01:41:22;;;;;;;39.03;6.15;;;5.60;99.90;;;;;;5011767;28;20085;-77
2021/03/21 01:43:48;;;;;;;39.88;5.65;;;5.60;99.90;;;;;;5010151;28;20029;-77
2021/03/21 01:46:19;;;;;;;34.92;4.97;;;5.60;99.90;;;;;;5012152;28;20382;-77
2021/03/21 01:48:50;;;;;;;34.42;5.75;;;5.60;99.90;;;;;;5012140;28;20022;-77
2021/03/21 01:51:22;;;;;;;56.15;5.63;;;5.60;99.90;;;;;;5011336;28;20041;-77
2021/03/21 01:53:53;;;;;;;43.72;5.95;;;5.60;99.90;;;;;;5026432;28;20037;-77
2021/03/21 01:56:19;;;;;;;43.72;5.97;;;5.50;99.90;;;;;;5027119;28;20619;-77
2021/03/21 01:58:48;;;;;;;35.33;4.93;;;5.60;99.90;;;;;;5011074;28;20486;-77
2021/03/21 02:01:18;;;;;;;37.75;5.70;;;5.50;99.90;;;;;;5011507;28;20037;-77
2021/03/21 02:03:45;;;;;;;48.33;5.80;;;5.50;99.90;;;;;;5011071;28;20029;-77
2021/03/21 02:06:39;;;;;;;38.40;5.43;;;5.50;99.90;;;;;;5026369;28;20149;-77
2021/03/21 02:09:32;;;;;;;58.28;6.95;;;5.50;99.90;;;;;;5011724;28;20026;-77
2021/03/21 02:12:07;;;;;;;37.63;5.18;;;5.50;99.90;;;;;;5026563;28;20037;-77
2021/03/21 02:14:52;;;;;;;45.13;5.78;;;5.40;99.90;;;;;;5009334;28;20097;-77
2021/03/21 02:17:40;;;;;;;54.67;7.45;;;5.40;99.90;;;;;;5011691;28;20045;-77
2021/03/21 02:20:21;;;;;;;55.05;5.72;;;5.40;99.90;;;;;;5008175;28;20041;-77
2021/03/21 02:22:58;;;;;;;58.63;6.32;;;5.40;99.90;;;;;;5012949;28;20037;-77
2021/03/21 02:25:42;;;;;;;47.90;7.60;;;5.40;99.90;;;;;;5014874;28;20025;-77
2021/03/21 02:28:36;;;;;;;50.75;5.72;;;5.40;99.90;;;;;;5014130;28;20061;-77
2021/03/21 02:31:12;;;;;;;45.58;7.05;;;5.40;99.90;;;;;;5015026;28;20558;-76
2021/03/21 02:33:40;;;;;;;64.93;7.40;;;5.40;99.90;;;;;;5014034;28;20034;-77
2021/03/21 02:36:14;;;;;;;71.20;9.88;;;5.30;99.90;;;;;;5030316;28;20109;-77
2021/03/21 02:38:49;;;;;;;45.67;5.88;;;5.30;99.90;;;;;;5030738;28;20054;-77
2021/03/21 02:41:23;;;;;;;56.67;6.72;;;5.30;99.90;;;;;;5013833;28;20030;-77
2021/03/21 02:44:00;;;;;;;65.38;8.60;;;5.30;99.90;;;;;;5014387;28;20493;-77
2021/03/21 02:46:32;;;;;;;67.97;9.45;;;5.20;99.90;;;;;;5015305;28;20057;-78
2021/03/21 02:49:15;;;;;;;66.30;7.75;;;5.20;99.90;;;;;;5015190;28;20026;-77
2021/03/21 02:51:45;;;;;;;68.57;8.48;;;5.20;99.90;;;;;;5014677;28;20029;-77
2021/03/21 02:54:25;;;;;;;76.82;9.18;;;5.10;99.90;;;;;;5029522;28;20021;-77
2021/03/21 02:57:00;;;;;;;85.75;9.98;;;5.10;99.90;;;;;;5015071;28;20036;-78
2021/03/21 02:59:31;;;;;;;69.32;9.65;;;5.00;99.90;;;;;;5014836;28;20100;-78
2021/03/21 03:02:18;;;;;;;70.40;9.98;;;4.90;99.90;;;;;;5014718;28;20398;-77
2021/03/21 03:04:48;;;;;;;69.28;9.35;;;4.80;99.90;;;;;;5013394;28;20457;-77
2021/03/21 03:07:40;;;;;;;97.38;11.57;;;4.70;99.90;;;;;;5014622;28;20026;-77
2021/03/21 03:10:18;;;;;;;73.60;10.93;;;4.60;99.90;;;;;;5029497;28;20033;-77
2021/03/21 03:12:51;;;;;;;81.75;11.13;;;4.50;99.90;;;;;;4994805;28;20105;-77
2021/03/21 03:15:17;;;;;;;;;;;4.40;99.90;;;;;;4994912;28;20030;-77
2021/03/21 03:18:04;;;;;;;66.38;10.07;;;4.40;99.90;;;;;;5010147;28;19917;-77
2021/03/21 03:20:39;;;;;;;96.25;11.25;;;4.30;99.90;;;;;;5004637;28;20026;-78
2021/03/21 03:23:10;;;;;;;100.75;12.10;;;4.30;99.90;;;;;;5014492;28;20552;-78
2021/03/21 03:25:39;;;;;;;85.82;11.10;;;4.20;99.90;;;;;;5013762;28;20446;-77
2021/03/21 03:28:36;;;;;;;105.65;10.95;;;4.30;99.90;;;;;;5014253;28;20028;-77
2021/03/21 03:31:34;;;;;;;85.43;10.95;;;4.10;99.90;;;;;;4945734;28;20049;-77
2021/03/21 03:33:59;;;;;;;81.30;11.68;;;4.10;99.90;;;;;;5012028;28;20026;-78
2021/03/21 03:36:25;;;;;;;80.50;10.80;;;4.00;99.90;;;;;;5013488;28;20049;-78
2021/03/21 03:38:51;;;;;;;78.07;10.75;;;4.10;99.90;;;;;;5029382;28;20025;-78
2021/03/21 03:41:32;;;;;;;83.28;10.80;;;4.10;99.90;;;;;;5013958;28;20378;-78
2021/03/21 03:44:28;;;;;;;74.85;10.70;;;4.00;99.90;;;;;;5011888;28;20018;-78
2021/03/21 03:47:09;;;;;;;87.13;11.77;;;4.00;99.90;;;;;;5012918;28;20469;-78
2021/03/21 03:49:59;;;;;;;89.57;11.38;;;4.00;99.90;;;;;;5013541;28;20029;-77
2021/03/21 03:52:36;;;;;;;82.65;11.15;;;4.00;99.90;;;;;;5012313;28;20034;-78
2021/03/21 03:55:23;;;;;;;82.72;10.93;;;4.00;99.90;;;;;;5013033;28;20087;-78
2021/03/21 03:57:56;;;;;;;85.88;14.13;;;4.00;99.90;;;;;;5013941;28;20026;-78
2021/03/21 04:00:30;;;;;;;94.22;12.88;;;4.00;99.90;;;;;;5013711;28;20084;-78
2021/03/21 04:03:13;;;;;;;90.50;13.75;;;4.00;99.90;;;;;;5013823;28;20630;-78
2021/03/21 04:06:09;;;;;;;82.38;12.00;;;4.00;99.90;;;;;;5012836;28;20038;-78
2021/03/21 04:08:46;;;;;;;82.22;12.70;;;3.90;99.90;;;;;;5010541;28;20418;-78
2021/03/21 04:11:28;;;;;;;91.88;12.02;;;3.90;99.90;;;;;;5013317;28;20069;-78
2021/03/21 04:14:08;;;;;;;97.05;12.52;;;3.90;99.90;;;;;;5012830;28;20375;-77
2021/03/21 04:17:04;;;;;;;94.20;11.02;;;3.90;99.90;;;;;;5013735;28;20025;-78
2021/03/21 04:19:43;;;;;;;106.57;13.88;;;3.90;99.90;;;;;;4989985;28;20101;-78
2021/03/21 04:22:33;;;;;;;93.28;11.85;;;3.90;99.90;;;;;;5013229;28;20532;-77
2021/03/21 04:25:05;;;;;;;94.18;10.90;;;3.90;99.90;;;;;;5012799;28;20022;-78
2021/03/21 04:27:36;;;;;;;98.10;13.82;;;3.90;99.90;;;;;;5013371;28;20461;-78
2021/03/21 04:30:11;;;;;;;94.40;13.15;;;3.80;99.90;;;;;;5011404;28;20040;-78
2021/03/21 04:32:45;;;;;;;97.88;12.18;;;3.80;99.90;;;;;;5011510;28;20398;-78
2021/03/21 04:35:35;;;;;;;109.85;12.27;;;3.80;99.90;;;;;;5012238;28;20032;-78
2021/03/21 04:38:14;;;;;;;88.15;13.13;;;3.90;99.90;;;;;;5013141;28;20044;-78
2021/03/21 04:40:41;;;;;;;113.32;14.35;;;3.90;99.90;;;;;;5028348;28;20124;-78
2021/03/21 04:43:40;;;;;;;91.28;12.57;;;3.90;99.90;;;;;;5027656;28;20034;-78
2021/03/21 04:46:12;;;;;;;92.70;11.82;;;3.80;99.90;;;;;;5012277;28;20037;-78
2021/03/21 04:48:39;;;;;;;124.47;14.85;;;3.80;99.90;;;;;;5013067;28;20045;-78
2021/03/21 04:51:15;;;;;;;109.93;13.55;;;3.80;99.90;;;;;;5012582;28;20037;-78
2021/03/21 04:53:45;;;;;;;96.07;12.18;;;3.80;99.90;;;;;;5012349;28;20576;-78
2021/03/21 04:56:15;;;;;;;112.32;14.13;;;3.80;99.90;;;;;;5028060;28;20030;-78
2021/03/21 04:58:44;;;;;;;78.15;11.52;;;3.80;99.90;;;;;;5011581;28;20026;-78
2021/03/21 05:01:24;;;;;;;90.53;13.18;;;3.80;99.90;;;;;;5011124;28;20030;-79
2021/03/21 05:04:11;;;;;;;89.03;12.80;;;3.80;99.90;;;;;;5027313;28;20153;-78
2021/03/21 05:06:50;;;;;;;96.68;11.32;;;3.80;99.90;;;;;;5011166;28;20028;-78
2021/03/21 05:09:25;;;;;;;86.78;11.73;;;3.80;99.90;;;;;;5027854;28;20057;-78
2021/03/21 05:12:02;;;;;;;112.30;13.98;;;3.70;99.90;;;;;;5012250;28;20038;-78
2021/03/21 05:14:37;;;;;;;100.65;14.82;;;3.80;99.90;;;;;;5011942;28;20030;-78
2021/03/21 05:17:17;;;;;;;65.22;12.40;;;3.80;99.90;;;;;;5012483;28;20026;-78
2021/03/21 05:19:50;;;;;;;99.68;12.95;;;3.80;99.90;;;;;;5011786;28;20018;-79
2021/03/21 05:22:34;;;;;;;106.25;15.85;;;3.70;99.90;;;;;;5012386;28;20034;-78
2021/03/21 05:25:07;;;;;;;101.00;17.38;;;3.80;99.90;;;;;;5011804;28;20654;-78
2021/03/21 05:27:38;;;;;;;98.97;20.23;;;3.80;99.90;;;;;;5011067;28;20080;-79
2021/03/21 05:30:21;;;;;;;102.82;20.65;;;3.80;99.90;;;;;;5012047;28;20026;-78
2021/03/21 05:32:49;;;;;;;90.78;15.43;;;3.80;99.90;;;;;;5027697;28;20111;-78
2021/03/21 05:35:25;;;;;;;101.18;17.80;;;3.80;99.90;;;;;;5011141;28;20025;-78
2021/03/21 05:37:59;;;;;;;111.57;20.08;;;3.70;99.90;;;;;;5012082;28;20026;-78
2021/03/21 05:40:59;;;;;;;80.97;13.98;;;3.80;99.90;;;;;;5010569;28;20026;-78
2021/03/21 05:44:14;;;;;;;125.40;18.95;;;3.70;99.90;;;;;;5011011;28;20037;-78
2021/03/21 05:46:39;;;;;;;120.63;16.67;;;3.90;99.90;;;;;;4999112;28;20049;-78
2021/03/21 05:49:23;;;;;;;105.13;16.83;;;3.80;99.90;;;;;;5010646;28;20026;-78
2021/03/21 05:52:00;;;;;;;119.60;25.25;;;3.80;99.90;;;;;;4996997;28;20030;-78
2021/03/21 05:54:51;;;;;;;130.43;27.08;;;3.80;99.90;;;;;;5011313;28;20030;-78
2021/03/21 05:57:35;;;;;;;93.63;16.25;;;3.90;99.90;;;;;;5011446;28;20025;-78
2021/03/21 06:00:00;;;;;;;;;;;4.00;99.90;;;;;;5012300;28;20030;-78
2021/03/21 06:02:34;;;;;;;88.85;18.88;;;4.10;99.90;;;;;;5011825;28;19906;-78
2021/03/21 06:05:23;;;;;;;85.15;14.52;;;4.10;99.90;;;;;;5010628;28;20034;-78
2021/03/21 06:08:13;;;;;;;91.20;15.90;;;4.10;99.90;;;;;;5011433;28;20064;-78
2021/03/21 06:10:49;;;;;;;76.18;11.63;;;4.20;99.90;;;;;;5011704;28;20025;-78
2021/03/21 06:13:50;;;;;;;94.13;13.00;;;4.30;99.90;;;;;;5011722;28;20092;-78
2021/03/21 06:16:41;;;;;;;76.03;14.77;;;4.30;99.90;;;;;;5009755;28;20095;-78
2021/03/21 06:19:34;;;;;;;104.60;14.90;;;4.40;99.90;;;;;;5011798;28;20484;-78
2021/03/21 06:22:00;;;;;;;89.20;15.57;;;4.40;99.90;;;;;;4992189;28;20081;-79
2021/03/21 06:24:46;;;;;;;61.50;11.80;;;4.40;99.90;;;;;;4991278;28;20486;-78
2021/03/21 06:27:23;;;;;;;87.38;14.07;;;4.50;99.90;;;;;;5025132;28;20502;-78
2021/03/21 06:30:10;;;;;;;79.18;11.40;;;4.50;99.90;;;;;;5026942;28;20040;-78
2021/03/21 06:32:59;;;;;;;94.30;15.85;;;4.60;99.90;;;;;;5010200;28;20116;-78
2021/03/21 06:35:59;;;;;;;69.57;11.38;;;4.60;99.90;;;;;;5010567;28;20487;-78
2021/03/21 06:38:34;;;;;;;79.20;12.40;;;4.60;99.90;;;;;;5011535;28;20037;-78
2021/03/21 06:41:21;;;;;;;95.22;12.98;;;4.60;99.90;;;;;;5011390;28;20022;-78
2021/03/21 06:44:05;;;;;;;69.85;12.85;;;4.60;99.90;;;;;;5010778;28;20453;-78
2021/03/21 06:47:07;;;;;;;101.03;17.90;;;4.60;99.90;;;;;;5011108;28;20113;-78
2021/03/21 06:49:50;;;;;;;71.60;16.08;;;4.60;99.90;;;;;;4960239;28;20487;-78
2021/03/21 06:52:53;;;;;;;72.53;15.80;;;4.60;99.90;;;;;;5010962;28;20466;-78
2021/03/21 06:55:33;;;;;;;75.10;11.30;;;4.60;99.90;;;;;;5010649;28;20022;-78
2021/03/21 06:58:36;;;;;;;82.35;9.80;;;4.60;99.90;;;;;;5011381;28;20433;-78
2021/03/21 07:01:18;;;;;;;69.88;10.30;;;4.60;99.90;;;;;;5011542;28;20022;-78
2021/03/21 07:03:56;;;;;;;84.57;12.93;;;4.70;99.90;;;;;;5010209;28;20076;-77
2021/03/21 07:06:58;;;;;;;65.35;9.48;;;4.70;99.90;;;;;;5010952;28;20030;-77
2021/03/21 07:09:50;;;;;;;80.53;9.43;;;4.70;99.90;;;;;;5010905;28;20468;-79
2021/03/21 07:12:59;;;;;;;75.22;13.05;;;4.70;99.90;;;;;;5010242;28;20568;-77
2021/03/21 07:15:46;;;;;;;79.72;9.43;;;4.70;99.90;;;;;;5010137;28;20080;-77
2021/03/21 07:18:27;;;;;;;66.55;10.85;;;4.80;99.90;;;;;;5009767;28;20050;-77
2021/03/21 07:21:43;;;;;;;74.80;9.93;;;4.80;99.90;;;;;;5009530;28;20154;-79
2021/03/21 07:24:30;;;;;;;67.88;10.00;;;4.80;99.90;;;;;;5003135;28;20071;-77
2021/03/21 07:27:22;;;;;;;65.18;8.38;;;4.80;99.90;;;;;;5010950;28;20489;-77
2021/03/21 07:29:57;;;;;;;67.22;10.30;;;4.80;99.90;;;;;;5010707;28;20026;-79
2021/03/21 07:32:35;;;;;;;78.28;10.43;;;4.90;99.90;;;;;;5009076;28;20030;-78
2021/03/21 07:35:15;;;;;;;86.55;11.82;;;4.90;99.90;;;;;;5005734;28;20534;-78
2021/03/21 07:37:56;;;;;;;66.53;11.60;;;4.90;99.90;;;;;;5003162;28;20030;-78
2021/03/21 07:40:41;;;;;;;52.85;8.60;;;5.10;99.90;;;;;;5010546;28;21252;-79
2021/03/21 07:43:28;;;;;;;56.38;8.65;;;5.20;99.90;;;;;;5010676;28;20045;-79
2021/03/21 07:46:18;;;;;;;65.47;9.65;;;5.20;99.90;;;;;;5009717;28;20483;-79
2021/03/21 07:48:55;;;;;;;70.63;10.45;;;5.30;99.90;;;;;;5011058;28;20105;-78
2021/03/21 07:51:35;;;;;;;65.65;8.60;;;5.40;99.90;;;;;;5007037;28;20061;-78
2021/03/21 07:54:33;;;;;;;74.90;10.43;;;5.50;99.90;;;;;;5009577;28;20034;-79
2021/03/21 07:57:16;;;;;;;68.82;9.20;;;5.60;99.90;;;;;;5010666;28;20505;-78
2021/03/21 07:59:42;;;;;;;53.67;8.13;;;5.70;99.90;;;;;;5010279;28;20057;-78
2021/03/21 08:02:13;;;;;;;51.70;8.30;;;5.70;99.90;;;;;;5007618;28;20064;-78
2021/03/21 08:04:48;;;;;;;73.32;8.88;;;5.80;99.90;;;;;;5024212;28;20498;-79
2021/03/21 08:07:35;;;;;;;53.08;8.18;;;5.60;99.90;;;;;;5010613;28;20030;-77
2021/03/21 08:10:13;;;;;;;73.22;9.93;;;5.50;99.90;;;;;;5010126;28;20707;-78
2021/03/21 08:12:47;;;;;;;51.28;8.23;;;5.50;99.90;;;;;;5010231;28;20030;-78
2021/03/21 08:15:21;;;;;;;89.57;9.40;;;5.50;99.90;;;;;;5009316;28;20030;-78
2021/03/21 08:17:55;;;;;;;50.85;8.55;;;5.50;99.90;;;;;;5010480;28;20029;-77
2021/03/21 08:20:22;;;;;;;;;;;5.50;99.90;;;;;;5009351;28;20049;-77
2021/03/21 08:22:50;;;;;;;62.33;10.00;;;5.50;99.90;;;;;;5010175;28;19916;-78
2021/03/21 08:25:28;;;;;;;75.15;13.40;;;5.60;99.90;;;;;;5008836;28;20026;-78
2021/03/21 08:27:55;;;;;;;56.17;11.20;;;5.60;99.90;;;;;;5009230;28;20516;-77
2021/03/21 08:30:27;;;;;;;71.22;10.80;;;5.60;99.90;;;;;;5011042;28;20050;-78
2021/03/21 08:32:55;;;;;;;64.07;9.65;;;5.60;99.90;;;;;;5012242;28;20104;-78
2021/03/21 08:35:24;;;;;;;65.55;8.98;;;5.70;99.90;;;;;;5012102;28;20065;-78
2021/03/21 08:37:53;;;;;;;50.83;8.63;;;5.80;99.90;;;;;;5012984;28;20514;-78
2021/03/21 08:40:32;;;;;;;59.30;10.30;;;6.00;99.90;;;;;;5027973;28;20030;-78
2021/03/21 08:43:21;;;;;;;65.55;10.00;;;6.30;99.90;;;;;;5011937;28;20060;-78
2021/03/21 08:46:16;;;;;;;64.85;8.75;;;6.40;99.90;;;;;;5012257;28;20029;-78
2021/03/21 08:48:43;;;;;;;48.53;7.82;;;6.50;99.90;;;;;;5012942;28;20022;-77
2021/03/21 08:51:11;;;;;;;60.33;7.93;;;6.90;99.90;;;;;;5010828;28;20032;-78
2021/03/21 08:53:53;;;;;;;41.25;7.43;;;6.80;99.90;;;;;;5011260;28;20029;-79
2021/03/21 08:56:38;;;;;;;48.75;6.60;;;7.00;99.90;;;;;;5012779;28;20073;-78
2021/03/21 08:59:30;;;;;;;51.53;8.98;;;7.00;99.90;;;;;;5011273;28;20033;-78
2021/03/21 09:02:02;;;;;;;68.15;7.75;;;7.00;99.90;;;;;;5002500;28;20026;-78
2021/03/21 09:04:28;;;;;;;56.30;7.57;;;6.90;99.90;;;;;;5011877;28;20022;-78
2021/03/21 09:06:53;;;;;;;55.95;7.88;;;6.90;99.90;;;;;;5012485;28;20040;-79
2021/03/21 09:09:34;;;;;;;52.60;8.05;;;7.20;99.90;;;;;;5012551;28;20101;-78
2021/03/21 09:12:19;;;;;;;50.63;7.82;;;7.40;99.90;;;;;;5011966;28;20029;-79
2021/03/21 09:14:45;;;;;;;42.53;7.32;;;7.20;99.90;;;;;;5011280;28;20026;-78
2021/03/21 09:17:23;;;;;;;65.05;9.02;;;7.30;99.90;;;;;;5012374;28;20097;-78
2021/03/21 09:19:57;;;;;;;59.05;9.18;;;7.30;99.90;;;;;;5012081;28;20101;-79
2021/03/21 09:22:35;;;;;;;55.00;6.75;;;7.50;99.90;;;;;;5027562;28;20442;-79
2021/03/21 09:25:13;;;;;;;37.80;7.00;;;7.50;99.90;;;;;;5026784;28;20536;-78
2021/03/21 09:27:42;;;;;;;51.45;7.97;;;7.60;99.90;;;;;;5012221;28;20077;-78
2021/03/21 09:30:31;;;;;;;40.03;7.32;;;7.40;99.90;;;;;;5011928;28;20113;-78
2021/03/21 09:33:01;;;;;;;39.92;7.63;;;7.40;99.90;;;;;;5006664;28;20030;-79
2021/03/21 09:35:45;;;;;;;50.83;7.95;;;7.50;99.90;;;;;;5011236;28;20049;-79
2021/03/21 09:38:23;;;;;;;45.95;5.72;;;7.70;99.90;;;;;;5011409;28;20121;-79
2021/03/21 09:41:06;;;;;;;48.88;8.68;;;8.00;99.90;;;;;;5028983;28;20041;-79
2021/03/21 09:43:36;;;;;;;50.97;7.78;;;8.00;99.90;;;;;;5031841;28;20029;-78
2021/03/21 09:46:16;;;;;;;48.17;8.23;;;8.00;99.90;;;;;;5031280;28;20527;-78
2021/03/21 09:49:10;;;;;;;45.70;7.65;;;7.90;99.90;;;;;;5017841;28;20030;-78
2021/03/21 09:51:51;;;;;;;44.47;7.88;;;8.00;99.90;;;;;;5011994;28;20390;-78
2021/03/21 09:54:26;;;;;;;54.97;7.03;;;8.00;99.90;;;;;;5011145;28;20101;-78
2021/03/21 09:57:13;;;;;;;47.70;6.60;;;8.00;99.90;;;;;;5010603;28;20025;-78
2021/03/21 10:00:00;;;;;;;43.67;6.30;;;8.10;99.90;;;;;;5011273;28;20032;-77
2021/03/21 10:02:46;;;;;;;48.80;7.65;;;8.10;99.90;;;;;;5011917;28;20026;-78
2021/03/21 10:05:41;;;;;;;47.55;7.68;;;8.30;99.90;;;;;;5025867;28;20034;-78
2021/03/21 10:08:38;;;;;;;54.92;7.22;;;8.50;99.90;;;;;;5011794;28;20088;-77
2021/03/21 10:11:07;;;;;;;52.72;8.18;;;8.80;99.90;;;;;;4992108;28;20034;-77
2021/03/21 10:13:37;;;;;;;41.05;7.15;;;8.90;99.90;;;;;;4990332;28;20372;-78
2021/03/21 10:16:18;;;;;;;43.25;7.88;;;9.00;99.90;;;;;;4991702;28;20030;-78
2021/03/21 10:18:49;;;;;;;29.63;5.97;;;9.10;99.90;;;;;;4999468;28;20498;-77
2021/03/21 10:21:24;;;;;;;37.47;6.00;;;9.00;99.90;;;;;;5010867;28;20083;-77
2021/03/21 10:23:50;;;;;;;48.35;6.30;;;9.20;99.90;;;;;;5010553;28;20109;-77
2021/03/21 10:26:21;;;;;;;44.40;6.50;;;9.10;99.90;;;;;;5011499;28;20786;-77
2021/03/21 10:28:49;;;;;;;31.63;5.82;;;9.10;99.90;;;;;;5011619;28;20115;-77
2021/03/21 10:31:23;;;;;;;34.40;5.35;;;9.30;99.90;;;;;;5026132;28;20018;-78
2021/03/21 10:33:51;;;;;;;40.10;6.20;;;9.10;99.90;;;;;;5010564;28;20026;-78
2021/03/21 10:36:42;;;;;;;39.55;6.40;;;8.90;99.90;;;;;;5026837;28;20116;-78
2021/03/21 10:39:24;;;;;;;32.90;5.15;;;9.00;99.90;;;;;;5019579;28;20026;-78
2021/03/21 10:42:04;;;;;;;35.83;6.93;;;9.10;99.90;;;;;;5029980;28;20521;-78
2021/03/21 10:44:32;;;;;;;30.88;6.43;;;9.20;99.90;;;;;;5032896;28;20029;-79
2021/03/21 10:47:26;;;;;;;45.78;6.00;;;9.40;99.90;;;;;;5034758;28;20021;-79
2021/03/21 10:49:53;;;;;;;34.53;6.25;;;9.40;99.90;;;;;;5010452;28;20129;-80
2021/03/21 10:52:37;;;;;;;35.75;5.90;;;9.50;99.90;;;;;;5013949;28;20033;-79
2021/03/21 10:55:21;;;;;;;36.75;5.93;;;9.50;99.90;;;;;;5012414;28;20054;-77
2021/03/21 10:57:51;;;;;;;38.33;6.07;;;9.50;99.90;;;;;;5011924;28;20029;-79
2021/03/21 11:00:22;;;;;;;40.80;5.43;;;9.40;99.90;;;;;;5010669;28;20087;-79
2021/03/21 11:03:05;;;;;;;35.03;6.45;;;9.70;99.90;;;;;;5012031;28;20049;-78
2021/03/21 11:05:39;;;;;;;28.55;5.47;;;9.60;99.90;;;;;;5002661;28;20040;-78
2021/03/21 11:08:07;;;;;;;29.27;5.28;;;9.70;99.90;;;;;;5011245;28;20510;-77
2021/03/21 11:10:36;;;;;;;41.90;6.63;;;10.00;99.90;;;;;;5010904;28;20720;-78
2021/03/21 11:13:03;;;;;;;44.38;6.80;;;10.20;99.90;;;;;;5010736;28;20993;-79
2021/03/21 11:15:38;;;;;;;35.22;6.50;;;10.10;99.90;;;;;;5008432;28;20415;-78
2021/03/21 11:18:06;;;;;;;32.13;5.53;;;9.90;99.90;;;;;;5010954;28;21222;-78
2021/03/21 11:20:35;;;;;;;40.83;6.30;;;9.80;99.90;;;;;;5011433;28;20061;-79
2021/03/21 11:23:07;;;;;;;37.03;6.10;;;9.70;99.90;;;;;;5014270;28;20517;-78
2021/03/21 11:25:42;;;;;;;35.45;6.10;;;9.70;99.90;;;;;;5012361;28;20034;-77
2021/03/21 11:28:21;;;;;;;32.10;6.10;;;9.60;99.90;;;;;;5029553;28;20033;-77
2021/03/21 11:30:52;;;;;;;37.58;5.97;;;9.70;99.90;;;;;;5014078;28;20465;-77
2021/03/21 11:33:38;;;;;;;29.48;5.75;;;9.70;99.90;;;;;;5014107;28;20105;-77
2021/03/21 11:36:12;;;;;;;27.33;5.80;;;9.90;99.90;;;;;;5013819;28;20021;-77
2021/03/21 11:38:41;;;;;;;32.15;5.70;;;10.00;99.90;;;;;;5014076;28;20513;-78
2021/03/21 11:41:28;;;;;;;28.40;5.32;;;10.20;99.90;;;;;;5013938;28;20022;-77
2021/03/21 11:44:16;;;;;;;36.95;6.55;;;10.30;99.90;;;;;;5013399;28;20034;-77
2021/03/21 11:46:42;;;;;;;30.55;5.63;;;10.60;99.90;;;;;;5014151;28;20494;-77
2021/03/21 11:49:09;;;;;;;26.35;4.13;;;10.80;99.90;;;;;;5013735;28;20375;-77
2021/03/21 11:51:36;;;;;;;24.65;4.80;;;11.20;99.90;;;;;;5013960;28;20087;-77
2021/03/21 11:54:03;;;;;;;27.05;5.38;;;11.20;99.90;;;;;;5012979;28;20030;-77
2021/03/21 11:57:10;;;;;;;42.28;6.78;;;10.90;99.90;;;;;;5013579;28;20026;-79
2021/03/21 12:00:14;;;;;;;28.73;6.32;;;10.70;99.90;;;;;;5013213;28;20029;-80
2021/03/21 12:03:02;;;;;;;21.85;3.75;;;10.70;99.90;;;;;;5001889;28;20084;-80
2021/03/21 12:05:31;;;;;;;22.17;4.70;;;10.80;99.90;;;;;;5011684;28;20509;-80
2021/03/21 12:08:06;;;;;;;27.40;4.88;;;11.20;99.90;;;;;;5013382;28;20030;-80
2021/03/21 12:10:36;;;;;;;25.40;4.05;;;11.30;99.90;;;;;;5028354;28;20057;-80
2021/03/21 12:13:24;;;;;;;26.77;4.63;;;11.40;99.90;;;;;;5013539;28;20088;-79
2021/03/21 12:15:53;;;;;;;28.55;5.20;;;11.60;99.90;;;;;;5012809;28;20113;-80
2021/03/21 12:18:20;;;;;;;31.00;5.93;;;11.90;99.90;;;;;;5012783;28;20565;-80
2021/03/21 12:20:56;;;;;;;31.10;5.75;;;12.10;99.90;;;;;;5028488;28;20723;-80
2021/03/21 12:23:26;;;;;;;27.48;5.43;;;12.20;99.90;;;;;;5013223;28;20638;-79
2021/03/21 12:26:14;;;;;;;30.60;4.97;;;12.30;99.90;;;;;;5012510;28;20470;-80
2021/03/21 12:29:01;;;;;;;29.52;6.45;;;12.50;99.90;;;;;;5013025;28;20041;-80
2021/03/21 12:31:34;;;;;;;27.58;4.80;;;12.50;99.90;;;;;;5012963;28;20108;-81
2021/03/21 12:34:24;;;;;;;28.85;4.50;;;12.70;99.90;;;;;;5012451;28;20406;-81
2021/03/21 12:37:01;;;;;;;19.60;4.32;;;12.50;99.90;;;;;;5011925;28;20434;-81
2021/03/21 12:39:34;;;;;;;20.98;4.85;;;12.60;99.90;;;;;;5010990;28;20037;-80
2021/03/21 12:42:00;;;;;;;27.02;4.82;;;12.20;99.90;;;;;;5012957;28;20029;-80
2021/03/21 12:44:35;;;;;;;34.65;6.03;;;11.80;99.90;;;;;;5012405;28;20034;-80
2021/03/21 12:47:15;;;;;;;31.23;5.28;;;12.20;99.90;;;;;;5010730;28;20494;-80
2021/03/21 12:49:46;;;;;;;36.33;6.18;;;12.60;99.90;;;;;;5027734;28;20570;-80
2021/03/21 12:52:16;;;;;;;31.05;4.68;;;12.60;99.90;;;;;;5012823;28;20026;-79
2021/03/21 12:54:44;;;;;;;27.92;4.55;;;12.70;99.90;;;;;;5010669;28;20161;-79
2021/03/21 12:57:12;;;;;;;24.15;5.18;;;12.80;99.90;;;;;;5027640;28;20470;-79
2021/03/21 12:59:40;;;;;;;22.35;4.75;;;12.70;99.90;;;;;;5012745;28;20025;-79
2021/03/21 13:02:30;;;;;;;30.45;6.40;;;12.50;99.90;;;;;;5027946;28;20026;-78
2021/03/21 13:04:56;;;;;;;26.02;4.80;;;12.50;99.90;;;;;;5026688;28;20042;-79
2021/03/21 13:07:23;;;;;;;23.05;4.38;;;12.60;99.90;;;;;;5011938;28;20479;-79
2021/03/21 13:09:51;;;;;;;19.67;4.88;;;12.90;99.90;;;;;;5012288;28;20034;-78
2021/03/21 13:12:17;;;;;;;31.63;5.35;;;12.90;99.90;;;;;;5012239;28;20065;-79
2021/03/21 13:14:43;;;;;;;22.05;6.05;;;12.70;99.90;;;;;;5010042;28;20119;-77
2021/03/21 13:17:08;;;;;;;37.35;6.30;;;12.10;99.90;;;;;;5011301;28;20117;-77
2021/03/21 13:19:34;;;;;;;21.13;4.43;;;12.00;99.90;;;;;;5012221;28;20026;-79
2021/03/21 13:22:00;;;;;;;22.33;4.15;;;11.40;99.90;;;;;;5012342;28;20032;-79
2021/03/21 13:24:26;;;;;;;23.50;4.05;;;11.40;99.90;;;;;;5011361;28;20022;-77
2021/03/21 13:26:52;;;;;;;36.47;6.88;;;11.60;99.90;;;;;;5012069;28;20096;-78
2021/03/21 13:29:18;;;;;;;35.90;5.90;;;11.40;99.90;;;;;;5012179;28;20026;-78
2021/03/21 13:31:44;;;;;;;26.23;5.28;;;11.10;99.90;;;;;;5027398;28;20389;-78